Time;durP1;ratioP1;P1;durP2;ratioP2;P2;SDS_P1;SDS_P2;PMS_P1;PMS_P2;Temp;Humidity;BMP_temperature;BMP_pressure;BME280_temperature;BME280_humidity;BME280_pressure;Samples;Min_cycle;Max_cycle;Signal;HPM_P1;HPM_P2
2021/12/04 00:02:25;;;;;;;6.07;0.65;;;;;;;;;;5024059;28;20041;-65
2021/12/04 00:04:52;;;;;;;5.35;0.85;;;;;;;;;;5022573;28;20392;-64
2021/12/04 00:07:20;;;;;;;10.10;1.55;;;;;;;;;;5023139;28;20025;-65
2021/12/04 00:09:47;;;;;;;5.55;0.88;;;;;;;;;;5025220;28;20388;-65
2021/12/04 00:12:17;;;;;;;8.23;1.15;;;;;;;;;;5026837;28;20600;-65
2021/12/04 00:14:43;;;;;;;9.32;1.13;;;;;;;;;;5026653;28;20175;-65
2021/12/04 00:17:09;;;;;;;7.38;1.25;;;;;;;;;;5025151;28;20025;-65
2021/12/04 00:19:35;;;;;;;9.85;0.93;;;;;;;;;;5025967;28;20030;-68
2021/12/04 00:22:01;;;;;;;6.90;1.05;;;;;;;;;;5022242;28;20110;-65
2021/12/04 00:24:27;;;;;;;2.47;0.68;;;;;;;;;;5025383;28;20056;-66
2021/12/04 00:26:54;;;;;;;7.07;0.70;;;;;;;;;;5024489;28;20035;-64
2021/12/04 00:29:20;;;;;;;13.18;1.00;;;;;;;;;;5055768;28;20021;-66
2021/12/04 00:31:53;;;;;;;5.70;0.80;;;;;;;;;;5027137;28;20056;-65
2021/12/04 00:34:20;;;;;;;;;;;;;;;;;;5025993;28;20171;-64
2021/12/04 00:50:10;;;;;;;6.47;1.30;;;;;;;;;;5022125;28;20293;-65
2021/12/04 00:52:36;;;;;;;9.13;1.73;;;;;;;;;;5050523;28;20630;-64
2021/12/04 00:55:07;;;;;;;14.32;1.52;;;;;;;;;;5030638;28;20057;-65
2021/12/04 00:57:33;;;;;;;12.15;1.17;;;;;;;;;;5028190;28;20075;-64
2021/12/04 00:59:59;;;;;;;23.40;1.35;;;;;;;;;;5032567;28;20081;-67
2021/12/04 01:02:25;;;;;;;9.80;1.50;;;;;;;;;;5046266;28;20032;-65
2021/12/04 01:04:51;;;;;;;9.38;0.93;;;;;;;;;;5054975;28;20406;-66
2021/12/04 01:07:17;;;;;;;13.40;1.33;;;;;;;;;;5046842;28;20037;-65
2021/12/04 01:09:44;;;;;;;8.15;1.50;;;;;;;;;;5046746;28;20518;-64
2021/12/04 01:12:10;;;;;;;5.15;0.80;;;;;;;;;;5047047;28;20033;-65
2021/12/04 01:14:36;;;;;;;16.65;1.38;;;;;;;;;;5048809;28;20427;-65
2021/12/04 01:17:03;;;;;;;22.65;1.52;;;;;;;;;;5046348;28;20396;-64
2021/12/04 01:19:29;;;;;;;9.38;1.08;;;;;;;;;;5040936;28;20081;-61
2021/12/04 01:21:56;;;;;;;8.77;1.20;;;;;;;;;;5035833;28;20061;-59
2021/12/04 01:24:22;;;;;;;11.23;1.48;;;;;;;;;;5036916;28;20120;-61
2021/12/04 01:26:48;;;;;;;16.30;1.73;;;;;;;;;;5033852;28;20033;-60
2021/12/04 01:29:15;;;;;;;13.75;1.50;;;;;;;;;;5036009;28;20040;-62
2021/12/04 01:31:42;;;;;;;11.15;1.50;;;;;;;;;;5041126;28;20025;-62
2021/12/04 01:34:07;;;;;;;10.98;1.65;;;;;;;;;;5039252;28;20056;-63
2021/12/04 01:36:33;;;;;;;15.00;1.50;;;;;;;;;;5034429;28;20496;-63
2021/12/04 01:39:00;;;;;;;28.55;3.92;;;;;;;;;;5032087;28;20478;-63
2021/12/04 01:41:26;;;;;;;15.50;1.23;;;;;;;;;;5055494;28;20029;-62
2021/12/04 01:43:52;;;;;;;14.75;2.00;;;;;;;;;;5039467;28;20488;-62
2021/12/04 01:46:17;;;;;;;15.35;1.85;;;;;;;;;;5040523;28;20057;-62
2021/12/04 01:48:43;;;;;;;11.80;1.38;;;;;;;;;;5041572;28;20033;-62
2021/12/04 01:51:08;;;;;;;14.05;2.53;;;;;;;;;;5046313;28;20108;-62
2021/12/04 01:53:35;;;;;;;13.82;1.20;;;;;;;;;;5042459;28;20037;-62
2021/12/04 01:56:02;;;;;;;20.05;1.50;;;;;;;;;;5044281;28;20021;-61
2021/12/04 01:58:28;;;;;;;15.07;1.75;;;;;;;;;;5047604;23;20061;-76
2021/12/04 02:00:54;;;;;;;19.60;1.63;;;;;;;;;;5040393;28;20061;-77
2021/12/04 02:03:21;;;;;;;24.70;1.92;;;;;;;;;;5037291;28;20060;-76
2021/12/04 02:05:47;;;;;;;40.00;2.83;;;;;;;;;;5031682;28;20033;-77
2021/12/04 02:08:15;;;;;;;15.07;1.45;;;;;;;;;;5038308;28;20031;-77
2021/12/04 02:10:41;;;;;;;34.85;3.05;;;;;;;;;;5031676;28;20016;-76
2021/12/04 02:13:07;;;;;;;16.63;1.90;;;;;;;;;;5022232;28;20612;-76
2021/12/04 02:15:33;;;;;;;17.90;2.95;;;;;;;;;;5035481;28;20032;-76
2021/12/04 02:17:58;;;;;;;13.82;2.13;;;;;;;;;;5034307;28;20043;-75
2021/12/04 02:20:29;;;;;;;28.10;3.28;;;;;;;;;;5019240;28;20041;-76
2021/12/04 02:22:56;;;;;;;27.33;3.08;;;;;;;;;;5036991;28;20025;-76
2021/12/04 02:25:22;;;;;;;22.65;2.22;;;;;;;;;;5034890;28;20631;-76
2021/12/04 02:27:48;;;;;;;20.98;1.85;;;;;;;;;;5040894;28;20033;-76
2021/12/04 02:30:20;;;;;;;22.33;2.53;;;;;;;;;;5044496;28;20114;-76
2021/12/04 02:32:45;;;;;;;19.92;2.00;;;;;;;;;;5034290;28;20523;-77
2021/12/04 02:35:13;;;;;;;18.23;1.65;;;;;;;;;;5021278;28;20040;-75
2021/12/04 02:37:39;;;;;;;24.30;1.55;;;;;;;;;;5038384;28;20024;-76
2021/12/04 02:40:08;;;;;;;20.35;1.40;;;;;;;;;;5043289;28;20060;-76
2021/12/04 02:42:33;;;;;;;12.15;1.55;;;;;;;;;;5036997;28;20111;-76
2021/12/04 02:45:07;;;;;;;17.80;2.00;;;;;;;;;;5039544;28;20096;-76
2021/12/04 02:47:33;;;;;;;23.00;1.95;;;;;;;;;;5040478;28;20032;-75
2021/12/04 02:49:59;;;;;;;20.42;1.42;;;;;;;;;;5039776;28;20040;-76
2021/12/04 02:52:26;;;;;;;15.18;1.52;;;;;;;;;;5038346;28;20037;-75
2021/12/04 02:54:52;;;;;;;29.30;2.00;;;;;;;;;;5040059;28;20021;-76
2021/12/04 02:57:20;;;;;;;14.18;1.10;;;;;;;;;;5042793;28;20086;-77
2021/12/04 02:59:46;;;;;;;21.13;2.45;;;;;;;;;;5040127;28;20049;-77
2021/12/04 03:02:24;;;;;;;28.25;2.33;;;;;;;;;;5039813;28;20053;-75
2021/12/04 03:04:52;;;;;;;17.05;1.75;;;;;;;;;;5040602;28;20628;-76
2021/12/04 03:07:19;;;;;;;21.00;1.77;;;;;;;;;;5041778;28;20052;-76
2021/12/04 03:09:45;;;;;;;13.02;1.33;;;;;;;;;;5042119;28;20178;-76
2021/12/04 03:12:11;;;;;;;36.88;2.47;;;;;;;;;;5041569;28;20538;-76
2021/12/04 03:14:37;;;;;;;18.17;2.08;;;;;;;;;;5039437;28;20034;-76
2021/12/04 03:17:04;;;;;;;14.40;1.45;;;;;;;;;;5034616;28;20834;-77
2021/12/04 03:19:29;;;;;;;16.77;2.60;;;;;;;;;;5042156;28;20599;-77
2021/12/04 03:21:56;;;;;;;22.38;1.73;;;;;;;;;;5040924;28;20115;-76
2021/12/04 03:24:23;;;;;;;19.13;2.03;;;;;;;;;;5024828;28;20017;-76
2021/12/04 03:26:50;;;;;;;22.23;2.05;;;;;;;;;;5037730;28;20118;-77
2021/12/04 03:29:19;;;;;;;23.90;1.95;;;;;;;;;;5026223;28;20033;-75
2021/12/04 03:40:06;;;;;;;7.78;0.82;;;;;;;;;;5039319;28;20035;-76
2021/12/04 03:42:34;;;;;;;26.27;2.75;;;;;;;;;;5024122;28;20048;-76
2021/12/04 03:44:59;;;;;;;8.38;0.90;;;;;;;;;;5038500;28;20041;-76
2021/12/04 03:47:25;;;;;;;16.27;1.17;;;;;;;;;;5037746;28;20582;-77
2021/12/04 03:49:51;;;;;;;16.17;1.75;;;;;;;;;;5037599;28;20041;-75
2021/12/04 03:52:16;;;;;;;7.38;1.05;;;;;;;;;;5036115;28;20017;-78
2021/12/04 03:54:43;;;;;;;11.63;1.55;;;;;;;;;;5035197;28;20040;-76
2021/12/04 03:57:12;;;;;;;20.35;2.17;;;;;;;;;;5040170;28;20759;-77
2021/12/04 03:59:39;;;;;;;20.65;1.35;;;;;;;;;;5041494;28;20094;-75
2021/12/04 04:02:07;;;;;;;15.02;0.95;;;;;;;;;;5038001;28;20047;-76
2021/12/04 04:04:33;;;;;;;8.73;1.55;;;;;;;;;;5038830;28;20055;-76
2021/12/04 04:06:59;;;;;;;15.52;0.75;;;;;;;;;;5037350;28;20653;-76
2021/12/04 04:09:25;;;;;;;35.05;0.98;;;;;;;;;;5037289;28;20059;-76
2021/12/04 04:11:51;;;;;;;11.35;1.30;;;;;;;;;;5020211;28;20028;-78
2021/12/04 04:14:16;;;;;;;1.30;0.38;;;;;;;;;;5040858;28;20465;-77
2021/12/04 04:16:42;;;;;;;8.70;0.63;;;;;;;;;;5035657;28;20514;-77
2021/12/04 04:19:09;;;;;;;8.52;0.60;;;;;;;;;;5035478;28;20041;-76
2021/12/04 04:21:39;;;;;;;5.05;0.57;;;;;;;;;;5042603;28;20033;-76
2021/12/04 04:24:13;;;;;;;9.55;0.75;;;;;;;;;;5041919;28;21790;-77
2021/12/04 04:26:40;;;;;;;9.43;0.50;;;;;;;;;;5040892;28;20033;-77
2021/12/04 04:29:07;;;;;;;6.78;0.82;;;;;;;;;;5041242;28;20047;-77
2021/12/04 04:31:34;;;;;;;11.45;0.95;;;;;;;;;;5033480;28;20108;-77
2021/12/04 04:34:08;;;;;;;8.05;0.57;;;;;;;;;;5038261;28;20033;-76
2021/12/04 04:58:22;;;;;;;10.02;0.85;;;;;;;;;;5037319;28;20131;-76
2021/12/04 05:11:45;;;;;;;5.47;0.47;;;;;;;;;;5021211;28;20087;-77
2021/12/04 05:14:18;;;;;;;6.97;0.55;;;;;;;;;;5034597;28;20640;-77
2021/12/04 05:16:49;;;;;;;7.53;0.50;;;;;;;;;;5040695;28;20174;-76
2021/12/04 05:19:37;;;;;;;16.58;0.68;;;;;;;;;;5038933;28;20061;-77
2021/12/04 05:22:03;;;;;;;13.60;0.95;;;;;;;;;;5039322;28;20108;-77
2021/12/04 05:24:29;;;;;;;7.75;0.47;;;;;;;;;;5042496;28;20048;-76
2021/12/04 05:26:54;;;;;;;14.57;1.13;;;;;;;;;;5042108;28;20033;-76
2021/12/04 05:29:20;;;;;;;15.40;1.38;;;;;;;;;;5036343;28;20040;-76
2021/12/04 05:31:45;;;;;;;4.45;0.63;;;;;;;;;;5023644;28;20120;-76
2021/12/04 05:34:11;;;;;;;4.70;0.45;;;;;;;;;;5041106;28;20661;-76
2021/12/04 05:36:36;;;;;;;13.63;1.17;;;;;;;;;;5043709;28;20020;-81
2021/12/04 05:39:04;;;;;;;8.85;0.98;;;;;;;;;;5025081;28;20037;-79
2021/12/04 05:41:29;;;;;;;11.18;0.52;;;;;;;;;;5042353;28;20032;-75
2021/12/04 05:43:55;;;;;;;6.30;0.85;;;;;;;;;;5040165;28;20044;-76
2021/12/04 05:46:26;;;;;;;11.25;1.15;;;;;;;;;;5044232;28;20029;-79
2021/12/04 05:49:02;;;;;;;6.13;0.80;;;;;;;;;;5039212;28;20033;-77
2021/12/04 05:51:45;;;;;;;2.65;0.20;;;;;;;;;;5015206;28;20368;-76
2021/12/04 05:56:55;;;;;;;6.55;0.63;;;;;;;;;;5042469;28;20047;-76
2021/12/04 05:59:20;;;;;;;3.15;0.30;;;;;;;;;;5041913;28;20040;-75
2021/12/04 06:01:46;;;;;;;2.95;0.80;;;;;;;;;;5021862;28;20065;-74
2021/12/04 06:04:12;;;;;;;6.07;0.52;;;;;;;;;;5038069;28;20040;-78
2021/12/04 06:06:37;;;;;;;6.90;0.20;;;;;;;;;;5021074;28;20037;-78
2021/12/04 06:09:04;;;;;;;5.85;0.30;;;;;;;;;;5039513;28;20116;-76
2021/12/04 06:11:31;;;;;;;6.20;0.30;;;;;;;;;;5030809;28;20045;-79
2021/12/04 06:13:57;;;;;;;7.07;0.22;;;;;;;;;;5042374;28;20033;-76
2021/12/04 06:16:22;;;;;;;3.40;0.40;;;;;;;;;;5040525;28;20047;-79
2021/12/04 06:18:52;;;;;;;6.18;1.02;;;;;;;;;;5041326;28;20021;-77
2021/12/04 06:24:05;;;;;;;5.68;0.50;;;;;;;;;;5042807;28;20043;-76
2021/12/04 06:26:32;;;;;;;5.07;0.68;;;;;;;;;;5040922;28;20029;-76
2021/12/04 06:28:57;;;;;;;6.85;0.47;;;;;;;;;;5041585;28;20033;-77
2021/12/04 06:31:24;;;;;;;6.80;0.70;;;;;;;;;;5042059;28;20056;-78
2021/12/04 06:33:50;;;;;;;8.02;1.15;;;;;;;;;;5041003;28;20094;-76
2021/12/04 06:36:16;;;;;;;8.80;0.60;;;;;;;;;;5040722;28;20040;-77
2021/12/04 06:38:42;;;;;;;7.88;0.50;;;;;;;;;;5042981;28;20433;-77
2021/12/04 06:41:07;;;;;;;13.32;0.60;;;;;;;;;;5025683;28;20042;-77
2021/12/04 06:43:35;;;;;;;12.10;0.73;;;;;;;;;;5039808;28;20091;-76
2021/12/04 06:46:03;;;;;;;8.52;0.70;;;;;;;;;;5040988;28;20041;-77
2021/12/04 06:56:12;;;;;;;10.93;0.70;;;;;;;;;;5043153;28;20025;-76
2021/12/04 06:58:39;;;;;;;8.32;0.88;;;;;;;;;;5040308;28;20542;-76
2021/12/04 07:01:07;;;;;;;9.38;1.08;;;;;;;;;;5021928;28;20040;-77
2021/12/04 07:03:32;;;;;;;13.93;0.52;;;;;;;;;;5034611;28;20039;-76
2021/12/04 07:05:58;;;;;;;8.20;0.60;;;;;;;;;;5039819;28;20037;-75
2021/12/04 07:08:23;;;;;;;24.80;1.42;;;;;;;;;;5041353;28;20037;-78
2021/12/04 07:10:49;;;;;;;15.75;1.40;;;;;;;;;;5041028;28;20509;-76
2021/12/04 07:13:15;;;;;;;13.25;1.08;;;;;;;;;;5039170;28;20047;-77
2021/12/04 07:15:44;;;;;;;7.20;0.88;;;;;;;;;;5044066;28;20167;-77
2021/12/04 07:18:09;;;;;;;10.30;0.93;;;;;;;;;;5040530;28;20032;-81
2021/12/04 07:20:35;;;;;;;12.10;0.60;;;;;;;;;;5043883;28;20055;-79
2021/12/04 07:23:00;;;;;;;14.35;1.52;;;;;;;;;;5021286;28;20087;-79
2021/12/04 07:25:26;;;;;;;12.27;1.13;;;;;;;;;;5023496;28;20024;-79
2021/12/04 07:27:52;;;;;;;17.10;1.58;;;;;;;;;;5038269;28;20064;-78
2021/12/04 07:30:21;;;;;;;12.73;1.10;;;;;;;;;;5021136;28;20025;-78
2021/12/04 07:32:47;;;;;;;12.20;1.33;;;;;;;;;;5038660;28;20109;-79
2021/12/04 07:35:13;;;;;;;9.05;0.98;;;;;;;;;;5022211;28;20040;-77
2021/12/04 07:37:39;;;;;;;19.40;1.88;;;;;;;;;;5039181;28;20033;-76
2021/12/04 07:40:05;;;;;;;9.43;0.82;;;;;;;;;;5040783;28;20538;-77
2021/12/04 07:42:31;;;;;;;10.38;0.75;;;;;;;;;;5040036;28;20037;-77
2021/12/04 07:44:58;;;;;;;8.82;0.93;;;;;;;;;;5043852;28;20155;-77
2021/12/04 07:47:25;;;;;;;8.23;1.33;;;;;;;;;;5037889;28;20029;-76
2021/12/04 07:49:50;;;;;;;11.13;0.75;;;;;;;;;;5026069;28;20048;-76
2021/12/04 07:52:16;;;;;;;20.77;2.42;;;;;;;;;;5040574;28;20037;-77
2021/12/04 07:54:42;;;;;;;12.82;1.13;;;;;;;;;;5043910;28;20736;-76
2021/12/04 07:57:07;;;;;;;18.77;1.48;;;;;;;;;;5042398;28;20506;-77
2021/12/04 07:59:33;;;;;;;14.02;0.55;;;;;;;;;;5039450;28;20057;-76
2021/12/04 08:01:59;;;;;;;16.35;1.48;;;;;;;;;;5037558;28;20931;-76
2021/12/04 08:04:25;;;;;;;6.10;0.50;;;;;;;;;;5040520;28;20210;-78
2021/12/04 08:06:51;;;;;;;5.28;0.57;;;;;;;;;;5042516;28;20113;-79
2021/12/04 08:09:17;;;;;;;14.48;1.30;;;;;;;;;;5042839;28;20159;-78
2021/12/04 08:11:43;;;;;;;18.27;1.30;;;;;;;;;;5046251;28;20108;-76
2021/12/04 08:14:08;;;;;;;16.42;1.02;;;;;;;;;;5010558;28;20615;-76
2021/12/04 08:16:35;;;;;;;12.65;0.63;;;;;;;;;;5045444;28;20043;-77
2021/12/04 08:19:01;;;;;;;10.70;1.25;;;;;;;;;;5042792;28;20108;-77
2021/12/04 08:21:27;;;;;;;8.88;1.45;;;;;;;;;;5037219;28;20052;-76
2021/12/04 08:23:52;;;;;;;9.07;0.98;;;;;;;;;;5043111;28;20052;-77
2021/12/04 08:26:19;;;;;;;9.30;1.05;;;;;;;;;;5043744;28;20037;-77
2021/12/04 08:28:45;;;;;;;15.40;1.00;;;;;;;;;;5051831;28;20037;-76
2021/12/04 08:31:12;;;;;;;12.98;1.10;;;;;;;;;;5042422;28;20067;-76
2021/12/04 08:33:37;;;;;;;13.50;1.73;;;;;;;;;;5035193;28;20037;-78
2021/12/04 08:36:04;;;;;;;16.88;2.05;;;;;;;;;;5032993;28;20105;-78
2021/12/04 08:38:31;;;;;;;11.55;1.40;;;;;;;;;;5039589;28;20029;-77
2021/12/04 08:40:57;;;;;;;12.80;1.55;;;;;;;;;;5044957;28;20026;-76
2021/12/04 08:43:23;;;;;;;10.85;1.05;;;;;;;;;;5024230;28;20037;-78
2021/12/04 08:45:48;;;;;;;25.73;1.83;;;;;;;;;;5026430;28;20083;-78
2021/12/04 08:48:14;;;;;;;6.68;0.85;;;;;;;;;;5039409;28;20068;-76
2021/12/04 08:50:41;;;;;;;26.50;1.40;;;;;;;;;;5042115;28;20040;-75
2021/12/04 08:53:08;;;;;;;12.60;1.35;;;;;;;;;;5042768;28;20027;-76
2021/12/04 08:55:36;;;;;;;14.85;0.85;;;;;;;;;;5035656;28;20037;-75
2021/12/04 08:58:02;;;;;;;15.88;1.38;;;;;;;;;;5038305;28;20060;-75
2021/12/04 09:00:33;;;;;;;13.05;0.95;;;;;;;;;;5045706;28;20075;-76
2021/12/04 09:02:59;;;;;;;16.02;1.95;;;;;;;;;;5044718;28;20036;-78
2021/12/04 09:05:25;;;;;;;6.15;0.77;;;;;;;;;;5045360;28;20466;-77
2021/12/04 09:07:52;;;;;;;15.57;0.98;;;;;;;;;;5043671;28;20083;-76
2021/12/04 09:10:18;;;;;;;15.70;1.10;;;;;;;;;;5044468;28;20036;-78
2021/12/04 09:12:56;;;;;;;14.73;1.48;;;;;;;;;;5042559;28;20127;-77
2021/12/04 09:15:27;;;;;;;21.08;1.45;;;;;;;;;;5045186;28;20320;-76
2021/12/04 09:17:52;;;;;;;18.23;1.48;;;;;;;;;;5046583;28;20044;-76
2021/12/04 09:20:18;;;;;;;10.10;0.80;;;;;;;;;;5041512;28;20044;-78
2021/12/04 09:22:45;;;;;;;16.20;1.50;;;;;;;;;;5044669;28;20033;-78
2021/12/04 09:25:16;;;;;;;13.48;1.27;;;;;;;;;;5030060;28;20072;-76
2021/12/04 10:23:34;;;;;;;13.50;1.15;;;;;;;;;;5042992;28;20029;-79
2021/12/04 10:34:28;;;;;;;26.40;2.30;;;;;;;;;;5046787;28;20398;-77
2021/12/04 10:36:54;;;;;;;9.30;1.40;;;;;;;;;;5042327;28;20094;-75
2021/12/04 10:39:20;;;;;;;18.88;2.55;;;;;;;;;;5045766;28;20075;-76
2021/12/04 10:41:46;;;;;;;23.67;2.13;;;;;;;;;;5045983;28;20106;-77
2021/12/04 10:44:13;;;;;;;8.82;1.35;;;;;;;;;;5046314;28;20048;-76
2021/12/04 10:46:38;;;;;;;21.60;2.40;;;;;;;;;;5042998;28;20032;-76
2021/12/04 10:49:13;;;;;;;10.02;1.33;;;;;;;;;;5042574;28;21484;-79
2021/12/04 10:51:50;;;;;;;12.02;1.08;;;;;;;;;;5038455;28;20112;-76
2021/12/04 10:54:24;;;;;;;20.48;1.52;;;;;;;;;;5057896;28;20429;-79
2021/12/04 11:02:43;;;;;;;10.63;1.55;;;;;;;;;;5026120;28;20072;-77
2021/12/04 11:05:55;;;;;;;11.57;2.22;;;;;;;;;;5024055;28;20063;-77
2021/12/04 11:27:48;;;;;;;11.52;1.02;;;;;;;;;;5019857;28;20038;-77
2021/12/04 11:36:18;;;;;;;11.93;1.70;;;;;;;;;;5023418;28;20040;-78
2021/12/04 11:44:11;;;;;;;;;;;;;;;;;;5026591;28;20095;-80
2021/12/04 11:49:17;;;;;;;14.02;1.55;;;;;;;;;;5021087;28;20025;-78
2021/12/04 11:51:55;;;;;;;15.50;1.85;;;;;;;;;;5024338;28;20029;-78
2021/12/04 11:54:22;;;;;;;15.32;1.77;;;;;;;;;;5021003;28;20343;-77
2021/12/04 11:57:11;;;;;;;8.18;1.15;;;;;;;;;;5023793;28;20053;-77
2021/12/04 11:59:39;;;;;;;22.55;1.60;;;;;;;;;;5031921;28;20124;-77
2021/12/04 12:02:08;;;;;;;8.90;2.00;;;;;;;;;;5043085;28;20036;-77
2021/12/04 12:04:35;;;;;;;14.10;1.83;;;;;;;;;;5042443;28;20029;-82
2021/12/04 12:07:13;;;;;;;14.70;1.30;;;;;;;;;;5039615;28;20155;-77
2021/12/04 12:09:40;;;;;;;24.60;2.80;;;;;;;;;;5042019;28;20399;-77
2021/12/04 12:12:11;;;;;;;8.73;1.23;;;;;;;;;;5041679;28;20041;-78
2021/12/04 12:14:51;;;;;;;11.80;1.70;;;;;;;;;;5040835;28;20399;-78
2021/12/04 12:17:39;;;;;;;18.08;1.38;;;;;;;;;;5035702;28;20029;-80
2021/12/04 12:20:10;;;;;;;8.68;1.10;;;;;;;;;;5043901;28;20056;-78
2021/12/04 12:25:47;;;;;;;9.65;1.25;;;;;;;;;;5042148;28;20036;-81
2021/12/04 12:36:22;;;;;;;12.38;1.50;;;;;;;;;;5040885;28;20072;-79
2021/12/04 12:38:49;;;;;;;5.65;1.15;;;;;;;;;;5041797;28;20021;-77
2021/12/04 12:41:40;;;;;;;5.70;0.80;;;;;;;;;;5044152;28;20104;-81
2021/12/04 12:44:14;;;;;;;12.45;1.20;;;;;;;;;;5045886;28;20123;-79
2021/12/04 12:46:53;;;;;;;16.05;1.48;;;;;;;;;;5044771;28;20032;-77
2021/12/04 12:49:23;;;;;;;7.60;1.33;;;;;;;;;;5041556;28;20049;-78
2021/12/04 12:51:54;;;;;;;7.97;1.45;;;;;;;;;;5039234;28;20025;-76
2021/12/04 12:54:50;;;;;;;8.23;1.48;;;;;;;;;;5040640;28;20120;-77
2021/12/04 12:57:22;;;;;;;10.45;1.40;;;;;;;;;;5037220;28;20383;-77
2021/12/04 13:11:37;;;;;;;8.68;1.08;;;;;;;;;;5047409;28;20132;-76
2021/12/04 13:14:27;;;;;;;5.93;0.73;;;;;;;;;;5041458;28;20114;-75
2021/12/04 13:16:59;;;;;;;13.20;1.83;;;;;;;;;;5040697;28;20052;-75
2021/12/04 13:19:26;;;;;;;12.10;1.30;;;;;;;;;;5038377;28;20147;-77
2021/12/04 13:21:55;;;;;;;12.05;1.33;;;;;;;;;;5038754;28;20370;-77
2021/12/04 13:24:27;;;;;;;11.35;1.92;;;;;;;;;;5044546;28;20029;-73
2021/12/04 13:26:54;;;;;;;8.55;1.42;;;;;;;;;;5040473;28;20033;-75
2021/12/04 13:29:23;;;;;;;17.35;2.80;;;;;;;;;;5042912;28;20691;-75
2021/12/04 13:31:56;;;;;;;2.10;0.73;;;;;;;;;;5035847;28;20032;-75
2021/12/04 13:34:28;;;;;;;9.93;1.27;;;;;;;;;;5039021;28;20091;-75
2021/12/04 13:39:23;;;;;;;5.20;1.60;;;;;;;;;;5059496;23;20054;-63
2021/12/04 13:41:51;;;;;;;5.00;1.20;;;;;;;;;;4999489;28;20497;-60
2021/12/04 13:44:19;;;;;;;14.57;2.78;;;;;;;;;;5005512;28;20040;-60
2021/12/04 13:46:59;;;;;;;4.90;2.35;;;;;;;;;;5008402;28;20481;-61
2021/12/04 13:49:32;;;;;;;11.73;1.60;;;;;;;;;;5009099;28;20457;-61
2021/12/04 13:52:08;;;;;;;12.07;1.88;;;;;;;;;;5005275;28;20040;-61
2021/12/04 13:54:38;;;;;;;12.82;1.77;;;;;;;;;;5009535;28;20487;-61
2021/12/04 13:57:10;;;;;;;11.43;1.02;;;;;;;;;;5006462;28;20030;-61
2021/12/04 13:59:35;;;;;;;14.35;1.70;;;;;;;;;;5007510;28;20029;-61
2021/12/04 14:02:01;;;;;;;9.90;1.95;;;;;;;;;;5001705;28;20041;-61
2021/12/04 14:04:26;;;;;;;9.10;2.22;;;;;;;;;;5007486;28;20407;-60
2021/12/04 14:06:58;;;;;;;12.73;1.58;;;;;;;;;;5008979;28;20484;-61
2021/12/04 14:09:32;;;;;;;12.63;2.00;;;;;;;;;;5008777;28;20182;-61
2021/12/04 14:11:57;;;;;;;19.40;1.67;;;;;;;;;;5008397;28;20073;-60
2021/12/04 14:14:26;;;;;;;9.15;1.38;;;;;;;;;;5006784;28;20497;-63
2021/12/04 14:16:54;;;;;;;12.20;1.80;;;;;;;;;;5008551;28;20060;-62
2021/12/04 14:19:23;;;;;;;10.65;1.63;;;;;;;;;;5008283;28;20104;-61
2021/12/04 14:21:57;;;;;;;9.93;1.38;;;;;;;;;;5021697;28;20022;-63
2021/12/04 14:24:48;;;;;;;3.55;0.90;;;;;;;;;;5029260;28;20057;-62
2021/12/04 14:27:22;;;;;;;7.72;1.50;;;;;;;;;;5027912;28;20033;-63
2021/12/04 14:29:54;;;;;;;12.15;1.10;;;;;;;;;;5026570;28;20036;-61
2021/12/04 14:32:24;;;;;;;;;;;;;;;;;;5027038;28;20025;-62
2021/12/04 14:34:59;;;;;;;11.20;1.60;;;;;;;;;;5024441;28;19921;-62
2021/12/04 14:37:25;;;;;;;11.15;2.22;;;;;;;;;;5027302;28;20057;-62
2021/12/04 14:39:51;;;;;;;8.60;1.63;;;;;;;;;;5028419;28;20076;-62
2021/12/04 14:42:19;;;;;;;8.50;2.08;;;;;;;;;;5027144;28;20030;-62
2021/12/04 14:44:51;;;;;;;9.05;1.65;;;;;;;;;;5028692;28;20045;-62
2021/12/04 14:47:18;;;;;;;8.25;1.67;;;;;;;;;;5028168;28;20018;-62
2021/12/04 14:49:45;;;;;;;15.02;1.55;;;;;;;;;;5023635;28;20351;-63
2021/12/04 14:52:20;;;;;;;8.88;1.75;;;;;;;;;;5026787;28;20223;-60
2021/12/04 14:54:47;;;;;;;4.95;1.08;;;;;;;;;;5028381;28;20079;-62
2021/12/04 14:57:15;;;;;;;11.52;1.42;;;;;;;;;;5027528;28;20496;-63
2021/12/04 14:59:40;;;;;;;11.30;1.83;;;;;;;;;;5025467;28;20045;-63
2021/12/04 15:02:18;;;;;;;4.50;1.15;;;;;;;;;;5021547;28;20025;-62
2021/12/04 15:04:44;;;;;;;11.80;2.42;;;;;;;;;;5026404;28;20048;-63
2021/12/04 15:07:26;;;;;;;15.23;2.25;;;;;;;;;;5025745;28;20165;-63
2021/12/04 15:09:52;;;;;;;4.23;1.27;;;;;;;;;;5036470;28;20021;-62
2021/12/04 15:12:25;;;;;;;7.32;1.45;;;;;;;;;;5026562;28;20033;-62
2021/12/04 15:14:59;;;;;;;7.63;1.45;;;;;;;;;;5029996;28;20102;-62
2021/12/04 15:17:25;;;;;;;6.15;0.88;;;;;;;;;;5027077;28;20044;-63
2021/12/04 15:19:53;;;;;;;4.68;1.63;;;;;;;;;;5026417;28;20033;-63
2021/12/04 15:22:32;;;;;;;11.20;1.98;;;;;;;;;;5024464;28;20029;-62
2021/12/04 15:24:57;;;;;;;4.65;1.23;;;;;;;;;;5018750;28;20037;-63
2021/12/04 15:27:27;;;;;;;9.20;1.30;;;;;;;;;;5022370;28;20094;-61
2021/12/04 15:29:54;;;;;;;7.60;1.02;;;;;;;;;;5024046;28;20029;-63
2021/12/04 15:32:24;;;;;;;13.52;2.00;;;;;;;;;;5025830;28;20013;-62
2021/12/04 15:35:11;;;;;;;7.90;1.92;;;;;;;;;;5027433;28;20082;-63
2021/12/04 15:37:46;;;;;;;14.15;2.45;;;;;;;;;;5023657;28;20384;-61
2021/12/04 15:40:41;;;;;;;10.68;3.22;;;;;;;;;;5027066;28;20017;-63
2021/12/04 15:54:24;;;;;;;18.80;3.13;;;;;;;;;;5023783;28;20056;-62
2021/12/04 15:56:53;;;;;;;6.80;2.23;;;;;;;;;;5024378;28;20488;-62
2021/12/04 15:59:24;;;;;;;21.15;2.78;;;;;;;;;;5027277;28;20032;-62
2021/12/04 16:01:53;;;;;;;8.35;1.90;;;;;;;;;;5024824;28;20121;-62
2021/12/04 16:04:26;;;;;;;10.05;2.53;;;;;;;;;;5024025;28;20029;-62
2021/12/04 16:06:52;;;;;;;8.93;1.98;;;;;;;;;;5025559;28;20091;-61
2021/12/04 16:09:38;;;;;;;13.13;3.05;;;;;;;;;;5023183;28;20190;-61
2021/12/04 16:12:12;;;;;;;11.30;2.53;;;;;;;;;;5022062;28;20021;-62
2021/12/04 16:14:55;;;;;;;6.38;2.00;;;;;;;;;;5023895;28;20037;-63
2021/12/04 16:17:21;;;;;;;11.55;2.78;;;;;;;;;;5018147;28;20040;-61
2021/12/04 16:19:51;;;;;;;11.77;2.78;;;;;;;;;;5023378;28;20037;-62
2021/12/04 16:22:17;;;;;;;5.15;1.95;;;;;;;;;;5019660;28;20041;-63
2021/12/04 16:24:47;;;;;;;13.40;2.53;;;;;;;;;;5027177;28;20069;-62
2021/12/04 16:27:24;;;;;;;12.75;2.92;;;;;;;;;;5022811;28;20017;-63
2021/12/04 16:30:09;;;;;;;14.40;2.30;;;;;;;;;;5022252;28;20033;-63
2021/12/04 16:32:52;;;;;;;10.98;3.10;;;;;;;;;;5022917;28;20037;-62
2021/12/04 16:38:00;;;;;;;14.38;3.95;;;;;;;;;;5024767;28;20459;-62
2021/12/04 16:40:33;;;;;;;8.07;2.47;;;;;;;;;;5021117;28;20562;-63
2021/12/04 16:43:11;;;;;;;12.10;2.50;;;;;;;;;;5024763;28;20061;-63
2021/12/04 16:45:40;;;;;;;6.75;2.42;;;;;;;;;;5024639;28;20059;-62
2021/12/04 16:48:07;;;;;;;15.25;2.63;;;;;;;;;;5025221;28;20396;-63
2021/12/04 16:54:50;;;;;;;7.28;2.50;;;;;;;;;;5026048;28;20033;-63
2021/12/04 16:56:52;;;;;;;15.63;2.67;;;;;;;;;;5023115;28;20044;-63
2021/12/04 16:59:21;;;;;;;7.10;2.35;;;;;;;;;;5021445;28;20125;-62
2021/12/04 17:01:53;;;;;;;12.70;2.83;;;;;;;;;;5022008;28;20113;-63
2021/12/04 17:04:24;;;;;;;9.43;2.45;;;;;;;;;;5022924;28;20021;-63
2021/12/04 17:06:53;;;;;;;9.82;4.07;;;;;;;;;;5023881;28;20144;-63
2021/12/04 17:09:20;;;;;;;8.30;2.55;;;;;;;;;;5023981;28;20025;-63
2021/12/04 17:11:52;;;;;;;11.90;3.88;;;;;;;;;;5022836;28;20035;-63
2021/12/04 17:14:17;;;;;;;13.90;3.15;;;;;;;;;;5024235;28;20040;-64
2021/12/04 17:16:43;;;;;;;6.13;2.80;;;;;;;;;;5023704;28;20033;-63
2021/12/04 17:19:09;;;;;;;10.73;3.00;;;;;;;;;;5023545;28;20065;-62
2021/12/04 17:21:38;;;;;;;8.43;2.45;;;;;;;;;;5024503;28;20056;-64
2021/12/04 17:24:06;;;;;;;11.38;2.42;;;;;;;;;;5029973;28;20031;-63
2021/12/04 17:26:32;;;;;;;12.18;3.17;;;;;;;;;;5029113;28;20112;-62
2021/12/04 17:28:57;;;;;;;14.93;3.92;;;;;;;;;;5030199;28;20112;-61
2021/12/04 17:31:25;;;;;;;10.90;2.28;;;;;;;;;;5030016;28;20048;-62
2021/12/04 17:33:56;;;;;;;11.15;3.20;;;;;;;;;;5025830;28;20033;-63
2021/12/04 17:36:25;;;;;;;11.55;3.75;;;;;;;;;;5029835;28;20028;-63
2021/12/04 17:38:51;;;;;;;20.00;3.72;;;;;;;;;;5029415;28;20055;-64
2021/12/04 17:41:21;;;;;;;15.38;3.60;;;;;;;;;;5029224;28;20022;-64
2021/12/04 17:43:47;;;;;;;8.48;3.85;;;;;;;;;;5025802;28;20044;-62
2021/12/04 17:46:17;;;;;;;18.15;4.65;;;;;;;;;;5027244;28;20500;-63
2021/12/04 17:48:42;;;;;;;19.83;5.00;;;;;;;;;;5029236;28;20045;-62
2021/12/04 17:51:08;;;;;;;23.05;4.35;;;;;;;;;;5027702;28;20034;-63
2021/12/04 17:53:40;;;;;;;23.88;5.68;;;;;;;;;;5029031;28;20045;-63
2021/12/04 17:56:07;;;;;;;9.73;3.00;;;;;;;;;;5029130;28;20083;-63
2021/12/04 17:58:33;;;;;;;13.38;3.88;;;;;;;;;;5023563;28;20658;-63
2021/12/04 18:01:03;;;;;;;13.43;3.72;;;;;;;;;;5022829;28;20650;-63
2021/12/04 18:03:30;;;;;;;11.85;3.10;;;;;;;;;;5024389;28;20029;-62
2021/12/04 18:06:00;;;;;;;14.88;3.78;;;;;;;;;;5024960;28;20060;-62
2021/12/04 18:08:26;;;;;;;12.88;4.30;;;;;;;;;;5019742;28;20032;-62
2021/12/04 18:10:55;;;;;;;26.30;5.13;;;;;;;;;;5026824;28;20053;-63
2021/12/04 18:13:25;;;;;;;16.67;4.55;;;;;;;;;;5028693;28;20033;-61
2021/12/04 18:15:57;;;;;;;14.45;5.07;;;;;;;;;;5028359;28;22702;-62
2021/12/04 18:18:22;;;;;;;20.00;5.13;;;;;;;;;;5025315;28;20033;-61
2021/12/04 18:20:49;;;;;;;15.80;4.53;;;;;;;;;;5027208;28;20067;-63